Time;durP1;ratioP1;P1;durP2;ratioP2;P2;SDS_P1;SDS_P2;PMS_P1;PMS_P2;Temp;Humidity;BMP_temperature;BMP_pressure;BME280_temperature;BME280_humidity;BME280_pressure;Samples;Min_cycle;Max_cycle;Signal;HPM_P1;HPM_P2
2023/12/09 00:01:31;;;;;;;1.02;0.90;;;18.50;49.60;;;;;;8360373;28;20029;-52
2023/12/09 00:05:32;;;;;;;1.20;1.10;;;18.50;49.60;;;;;;8359736;28;20387;-52
2023/12/09 00:09:32;;;;;;;0.80;0.80;;;18.50;49.60;;;;;;8358748;28;20033;-51
2023/12/09 00:13:33;;;;;;;1.00;0.82;;;18.50;49.60;;;;;;8358860;28;20375;-52
2023/12/09 00:17:35;;;;;;;0.90;0.70;;;18.50;49.60;;;;;;8358966;28;20112;-53
2023/12/09 00:21:36;;;;;;;0.70;0.68;;;18.50;49.60;;;;;;8359886;28;20141;-52
2023/12/09 00:25:38;;;;;;;0.65;0.60;;;18.50;49.60;;;;;;8360032;28;20037;-52
2023/12/09 00:29:39;;;;;;;0.82;0.80;;;18.50;49.60;;;;;;8327283;28;20083;-52
2023/12/09 00:33:40;;;;;;;1.00;0.90;;;18.50;49.60;;;;;;8326681;28;20034;-51
2023/12/09 00:37:41;;;;;;;0.85;0.85;;;18.50;49.60;;;;;;8327361;28;20120;-51
2023/12/09 00:41:44;;;;;;;0.88;0.80;;;18.50;49.60;;;;;;8325487;28;20033;-51
2023/12/09 00:45:45;;;;;;;0.80;0.80;;;18.50;49.60;;;;;;8326904;28;20046;-50
2023/12/09 00:49:47;;;;;;;0.93;0.90;;;18.40;49.60;;;;;;8326743;28;20025;-53
2023/12/09 00:53:48;;;;;;;1.88;0.90;;;18.50;49.70;;;;;;8326506;28;20120;-53
2023/12/09 00:57:48;;;;;;;0.90;0.90;;;18.40;49.60;;;;;;8344226;28;20099;-52
2023/12/09 01:01:49;;;;;;;1.10;0.77;;;18.50;49.70;;;;;;8359266;28;20048;-52
2023/12/09 01:05:50;;;;;;;0.75;0.75;;;18.40;49.60;;;;;;8359069;28;20041;-54
2023/12/09 01:09:50;;;;;;;1.90;0.88;;;18.40;49.60;;;;;;8358874;28;20037;-54
2023/12/09 01:13:51;;;;;;;0.80;0.80;;;18.50;49.70;;;;;;8359102;28;20048;-54
2023/12/09 01:17:52;;;;;;;1.00;0.90;;;18.40;49.60;;;;;;8362195;28;20490;-53
2023/12/09 01:21:52;;;;;;;0.82;0.82;;;18.40;49.60;;;;;;8365155;28;20029;-53
2023/12/09 01:25:53;;;;;;;1.40;0.65;;;18.50;49.70;;;;;;8365085;28;20044;-52
2023/12/09 01:29:54;;;;;;;0.90;0.73;;;18.50;49.70;;;;;;8365213;28;20056;-55
2023/12/09 01:33:55;;;;;;;0.77;0.77;;;18.40;50.00;;;;;;8365208;28;20029;-53
2023/12/09 01:37:55;;;;;;;1.20;0.80;;;18.40;49.70;;;;;;8364876;28;20433;-53
2023/12/09 01:41:57;;;;;;;0.95;0.85;;;18.40;49.70;;;;;;8364557;28;20071;-54
2023/12/09 01:46:07;;;;;;;1.02;0.77;;;18.50;49.70;;;;;;8363503;28;20036;-52
2023/12/09 01:50:08;;;;;;;1.33;1.00;;;18.40;49.70;;;;;;8364739;28;20040;-53
2023/12/09 02:19:00;;;;;;;1.00;0.95;;;18.40;49.80;;;;;;8363261;28;20052;-52
2023/12/09 02:23:06;;;;;;;0.65;0.65;;;18.40;49.80;;;;;;8363057;28;20365;-53
2023/12/09 02:27:14;;;;;;;0.90;0.80;;;18.40;49.80;;;;;;8363011;28;20040;-53
2023/12/09 02:31:22;;;;;;;0.52;0.52;;;18.40;49.80;;;;;;8362194;28;20048;-51
2023/12/09 02:35:25;;;;;;;0.80;0.77;;;18.40;49.80;;;;;;8363359;28;20060;-53
2023/12/09 02:39:26;;;;;;;0.77;0.77;;;18.40;49.80;;;;;;8363219;28;20037;-53
2023/12/09 02:43:27;;;;;;;0.68;0.68;;;18.40;49.80;;;;;;8362892;28;20040;-52
2023/12/09 02:47:27;;;;;;;0.95;0.70;;;18.40;49.70;;;;;;8362675;28;20566;-50
2023/12/09 02:51:28;;;;;;;1.20;1.10;;;18.40;49.80;;;;;;8362792;28;20029;-52
2023/12/09 02:55:29;;;;;;;0.70;0.70;;;18.40;49.80;;;;;;8362549;28;20423;-52
2023/12/09 02:59:30;;;;;;;0.75;0.73;;;18.40;49.80;;;;;;8362381;28;20094;-53
2023/12/09 03:03:31;;;;;;;1.10;1.00;;;18.40;49.80;;;;;;8362211;28;20374;-53
2023/12/09 03:07:32;;;;;;;0.95;0.80;;;18.40;49.80;;;;;;8362178;28;20292;-53
2023/12/09 03:11:32;;;;;;;0.77;0.77;;;18.40;49.80;;;;;;8362104;28;20033;-54
2023/12/09 03:15:33;;;;;;;0.75;0.70;;;18.40;49.80;;;;;;8361777;28;20037;-53
2023/12/09 03:19:37;;;;;;;0.85;0.85;;;18.40;49.80;;;;;;8361387;28;20126;-53
2023/12/09 03:23:40;;;;;;;1.90;0.90;;;18.40;49.80;;;;;;8360645;28;20041;-52
2023/12/09 03:27:41;;;;;;;1.00;0.85;;;18.40;49.90;;;;;;8360585;28;20151;-52
2023/12/09 03:31:44;;;;;;;0.80;0.80;;;18.40;49.90;;;;;;8360100;28;20048;-53
2023/12/09 03:35:45;;;;;;;0.90;0.90;;;18.40;49.80;;;;;;8360159;28;20403;-52
2023/12/09 03:39:45;;;;;;;0.90;0.90;;;18.30;49.80;;;;;;8360086;28;20049;-52
2023/12/09 03:43:49;;;;;;;1.20;0.88;;;18.40;49.80;;;;;;8358490;28;20049;-53
2023/12/09 03:47:50;;;;;;;1.20;0.80;;;18.30;49.80;;;;;;8359677;28;20065;-52
2023/12/09 03:51:50;;;;;;;1.47;0.80;;;18.40;49.80;;;;;;8359402;28;20110;-52
2023/12/09 03:55:53;;;;;;;0.98;0.88;;;18.40;49.90;;;;;;8359814;28;20718;-52
2023/12/09 03:59:53;;;;;;;0.80;0.80;;;18.40;49.80;;;;;;8359918;28;20215;-52
2023/12/09 04:03:55;;;;;;;0.70;0.70;;;18.30;49.80;;;;;;8359445;28;20049;-52
2023/12/09 04:08:00;;;;;;;1.02;0.85;;;18.40;49.90;;;;;;8359614;28;20061;-52
2023/12/09 04:12:01;;;;;;;0.80;0.70;;;18.40;49.80;;;;;;8359550;28;20049;-52
2023/12/09 04:16:02;;;;;;;0.80;0.80;;;18.40;49.90;;;;;;8359160;28;20135;-53
2023/12/09 04:20:07;;;;;;;1.00;0.90;;;18.40;49.90;;;;;;8359814;28;20040;-52
2023/12/09 04:24:08;;;;;;;0.63;0.63;;;18.30;49.80;;;;;;8359024;28;20123;-50
2023/12/09 04:28:08;;;;;;;0.88;0.85;;;18.30;49.90;;;;;;8359087;28;20487;-52
2023/12/09 04:32:10;;;;;;;0.70;0.70;;;18.30;49.90;;;;;;8358975;28;20049;-52
2023/12/09 04:36:16;;;;;;;1.10;1.00;;;18.30;49.90;;;;;;8359138;28;20057;-54
2023/12/09 04:40:17;;;;;;;0.55;0.55;;;18.30;49.90;;;;;;8359343;28;20434;-52
2023/12/09 04:44:19;;;;;;;0.85;0.85;;;18.30;49.90;;;;;;8359118;28;20080;-54
2023/12/09 04:48:22;;;;;;;0.70;0.70;;;18.30;49.90;;;;;;8359173;28;20068;-53
2023/12/09 04:52:23;;;;;;;0.70;0.70;;;18.30;49.90;;;;;;8361265;28;20048;-53
2023/12/09 04:56:24;;;;;;;0.60;0.60;;;18.30;49.90;;;;;;8365355;28;20048;-53
2023/12/09 05:00:27;;;;;;;0.77;0.77;;;18.30;49.90;;;;;;8365756;28;20048;-51
2023/12/09 05:04:28;;;;;;;0.70;0.70;;;18.30;49.90;;;;;;8365026;28;20052;-52
2023/12/09 05:08:28;;;;;;;0.70;0.70;;;18.30;49.90;;;;;;8365328;28;20056;-53
2023/12/09 05:16:56;;;;;;;0.98;0.80;;;18.30;49.90;;;;;;8363628;28;20075;-52
2023/12/09 05:20:56;;;;;;;0.90;0.80;;;18.30;49.90;;;;;;8364906;28;20045;-53
2023/12/09 05:24:57;;;;;;;0.80;0.80;;;18.30;49.90;;;;;;8364393;28;20060;-52
2023/12/09 05:28:58;;;;;;;0.60;0.60;;;18.30;49.90;;;;;;8364625;28;20637;-53
2023/12/09 05:32:59;;;;;;;0.95;0.90;;;18.30;49.90;;;;;;8364402;28;20045;-53
2023/12/09 05:37:00;;;;;;;0.65;0.65;;;18.30;49.90;;;;;;8364202;28;20084;-51
2023/12/09 05:41:01;;;;;;;1.15;0.90;;;18.30;49.90;;;;;;8364293;28;20052;-53
2023/12/09 05:45:02;;;;;;;0.77;0.77;;;18.30;49.90;;;;;;8364101;28;20065;-53
2023/12/09 05:49:03;;;;;;;0.82;0.60;;;18.30;49.90;;;;;;8364001;28;20410;-53
2023/12/09 05:53:04;;;;;;;0.88;0.88;;;18.30;49.90;;;;;;8364043;28;20068;-54
2023/12/09 05:57:06;;;;;;;1.08;0.98;;;18.30;49.90;;;;;;8363777;28;20056;-51
2023/12/09 06:01:07;;;;;;;0.65;0.65;;;18.30;50.00;;;;;;8363918;28;20048;-52
2023/12/09 06:05:09;;;;;;;0.65;0.65;;;18.30;50.00;;;;;;8361877;28;20053;-51
2023/12/09 06:09:11;;;;;;;0.90;0.70;;;18.30;50.00;;;;;;8363520;28;20486;-54
2023/12/09 06:13:12;;;;;;;0.70;0.70;;;18.30;50.00;;;;;;8363309;28;20044;-53
2023/12/09 06:17:13;;;;;;;0.73;0.70;;;18.30;49.90;;;;;;8362957;28;20057;-52
2023/12/09 06:21:23;;;;;;;1.35;0.75;;;18.30;49.90;;;;;;8363013;28;20049;-53
2023/12/09 06:25:23;;;;;;;2.13;0.60;;;18.40;49.90;;;;;;8362481;28;20106;-53
2023/12/09 06:29:24;;;;;;;1.25;0.70;;;18.40;49.80;;;;;;8362209;28;20049;-52
2023/12/09 06:33:26;;;;;;;0.85;0.80;;;18.40;49.60;;;;;;8362710;28;20165;-52
2023/12/09 06:37:27;;;;;;;0.77;0.75;;;18.50;49.50;;;;;;8361144;28;20630;-52
2023/12/09 06:41:28;;;;;;;0.80;0.80;;;18.60;49.40;;;;;;8362499;28;20481;-52
2023/12/09 06:45:29;;;;;;;0.85;0.70;;;18.60;49.30;;;;;;8362017;28;20057;-53
2023/12/09 06:49:30;;;;;;;1.20;1.08;;;18.60;49.20;;;;;;8362363;28;20144;-53
2023/12/09 06:53:32;;;;;;;0.60;0.60;;;18.60;49.20;;;;;;8362276;28;20418;-53
2023/12/09 06:57:34;;;;;;;0.70;0.70;;;18.60;49.20;;;;;;8361482;28;20706;-52
2023/12/09 07:01:35;;;;;;;0.60;0.60;;;18.60;49.20;;;;;;8362062;28;20582;-52
2023/12/09 07:05:36;;;;;;;0.80;0.77;;;18.60;49.20;;;;;;8361417;28;20793;-51
2023/12/09 07:09:36;;;;;;;0.80;0.80;;;18.60;49.10;;;;;;8361277;28;20170;-50
2023/12/09 07:13:38;;;;;;;0.77;0.77;;;18.60;49.10;;;;;;8361722;28;20546;-52
2023/12/09 07:17:42;;;;;;;0.60;0.57;;;18.60;49.10;;;;;;8360869;28;20061;-51
2023/12/09 07:21:44;;;;;;;0.63;0.63;;;18.70;49.10;;;;;;8360965;28;20132;-51
2023/12/09 07:25:45;;;;;;;0.65;0.65;;;18.60;49.10;;;;;;8360597;28;20563;-51
2023/12/09 07:29:46;;;;;;;0.80;0.80;;;18.60;49.10;;;;;;8360800;28;20881;-51
2023/12/09 07:33:48;;;;;;;0.70;0.68;;;18.70;49.10;;;;;;8360784;28;20079;-50
2023/12/09 07:37:49;;;;;;;0.93;0.70;;;18.70;49.00;;;;;;8360431;28;20048;-53
2023/12/09 07:41:51;;;;;;;1.10;1.00;;;18.70;49.10;;;;;;8360434;28;20081;-51
2023/12/09 07:45:53;;;;;;;0.70;0.70;;;18.70;49.00;;;;;;8359934;28;20512;-51
2023/12/09 07:49:54;;;;;;;1.38;0.90;;;18.70;49.10;;;;;;8360189;28;20131;-52
2023/12/09 07:53:56;;;;;;;0.93;0.70;;;18.70;49.00;;;;;;8360115;28;20053;-51
2023/12/09 07:57:58;;;;;;;0.80;0.80;;;18.70;49.00;;;;;;8359778;28;20131;-52
2023/12/09 08:01:59;;;;;;;0.70;0.65;;;18.70;49.00;;;;;;8360075;28;20106;-52
2023/12/09 08:06:02;;;;;;;0.80;0.80;;;18.70;49.00;;;;;;8358576;28;20080;-52
2023/12/09 08:10:06;;;;;;;0.77;0.77;;;18.70;49.00;;;;;;8359682;28;20045;-51
2023/12/09 08:14:07;;;;;;;0.60;0.60;;;18.70;49.00;;;;;;8359683;28;20535;-52
2023/12/09 08:18:07;;;;;;;0.80;0.80;;;18.70;49.00;;;;;;8359368;28;20449;-53
2023/12/09 08:22:10;;;;;;;0.60;0.60;;;18.70;49.00;;;;;;8359548;28;20533;-52
2023/12/09 08:26:17;;;;;;;0.73;0.68;;;18.70;49.00;;;;;;8358583;28;20045;-52
2023/12/09 08:30:18;;;;;;;0.75;0.75;;;18.70;49.00;;;;;;8359523;28;20056;-50
2023/12/09 08:34:22;;;;;;;0.90;0.65;;;18.70;49.00;;;;;;8359188;28;20506;-50
2023/12/09 08:38:22;;;;;;;0.90;0.70;;;18.70;49.00;;;;;;8358763;28;20448;-51
2023/12/09 08:42:23;;;;;;;0.70;0.70;;;18.70;49.00;;;;;;8359210;28;20053;-50
2023/12/09 08:46:24;;;;;;;0.98;0.77;;;18.70;49.10;;;;;;8358935;28;20254;-51
2023/12/09 08:50:26;;;;;;;0.77;0.77;;;18.70;49.10;;;;;;8358918;28;20052;-50
2023/12/09 08:54:26;;;;;;;0.82;0.80;;;18.60;49.10;;;;;;8359242;28;20041;-50
2023/12/09 08:58:30;;;;;;;0.77;0.77;;;18.60;49.10;;;;;;8357493;28;20049;-52
2023/12/09 09:02:32;;;;;;;0.80;0.75;;;18.60;49.20;;;;;;8357625;28;20037;-52
2023/12/09 09:06:33;;;;;;;0.70;0.65;;;18.60;49.30;;;;;;8358612;28;20154;-50
2023/12/09 09:10:34;;;;;;;0.98;0.80;;;18.60;49.30;;;;;;8358566;28;20182;-51
2023/12/09 09:14:36;;;;;;;0.82;0.80;;;18.60;49.20;;;;;;8358720;28;20056;-50
2023/12/09 09:18:36;;;;;;;0.65;0.57;;;18.60;49.20;;;;;;8358569;28;20107;-52
2023/12/09 09:22:37;;;;;;;0.80;0.80;;;18.60;49.20;;;;;;8358589;28;20507;-53
2023/12/09 09:26:38;;;;;;;1.17;0.65;;;18.60;49.20;;;;;;8358303;28;20045;-54
2023/12/09 09:30:39;;;;;;;1.00;0.90;;;18.60;49.20;;;;;;8358219;28;20136;-53
2023/12/09 09:34:42;;;;;;;0.60;0.60;;;18.60;49.20;;;;;;8358576;28;20418;-54
2023/12/09 09:38:43;;;;;;;0.80;0.80;;;18.70;49.20;;;;;;8360969;28;20041;-54
2023/12/09 09:42:55;;;;;;;0.90;0.90;;;18.60;49.20;;;;;;8364289;28;20041;-54
2023/12/09 09:46:57;;;;;;;1.05;0.95;;;18.60;49.20;;;;;;8363975;28;20048;-54
2023/12/09 09:51:02;;;;;;;0.65;0.65;;;18.70;49.20;;;;;;8364155;28;20521;-52
2023/12/09 09:55:06;;;;;;;0.68;0.60;;;18.70;49.20;;;;;;8364404;28;20178;-54
2023/12/09 09:59:07;;;;;;;0.80;0.68;;;18.70;49.20;;;;;;8363655;28;20136;-55
2023/12/09 10:03:08;;;;;;;1.00;0.73;;;18.70;49.20;;;;;;8363934;28;20063;-54
2023/12/09 10:07:08;;;;;;;0.70;0.70;;;18.70;49.20;;;;;;8363691;28;20057;-54
2023/12/09 10:11:10;;;;;;;0.60;0.60;;;18.70;49.20;;;;;;8363401;28;20052;-53
2023/12/09 10:15:11;;;;;;;0.80;0.80;;;18.70;49.20;;;;;;8363552;28;20577;-55
2023/12/09 10:19:14;;;;;;;0.90;0.77;;;18.70;49.20;;;;;;8363174;28;20049;-54
2023/12/09 10:23:15;;;;;;;0.70;0.70;;;18.70;49.20;;;;;;8363308;28;20063;-53
2023/12/09 10:27:19;;;;;;;0.95;0.70;;;18.70;49.20;;;;;;8362710;28;20131;-52
2023/12/09 10:31:20;;;;;;;0.52;0.50;;;18.70;49.20;;;;;;8362715;28;20102;-54
2023/12/09 10:35:21;;;;;;;0.82;0.82;;;18.70;49.10;;;;;;8361563;28;20049;-54
2023/12/09 10:39:22;;;;;;;0.93;0.85;;;18.70;49.10;;;;;;8362681;28;20088;-54
2023/12/09 10:43:24;;;;;;;0.70;0.70;;;18.70;49.20;;;;;;8361200;28;20099;-55
2023/12/09 10:47:25;;;;;;;0.77;0.77;;;18.70;49.10;;;;;;8362384;28;20045;-53
2023/12/09 10:51:26;;;;;;;;;;;18.70;49.10;;;;;;8362097;28;20071;-54
2023/12/09 10:55:27;;;;;;;0.60;0.60;;;18.70;49.20;;;;;;8362415;28;19917;-53
2023/12/09 10:59:30;;;;;;;0.70;0.70;;;18.70;49.10;;;;;;8360433;28;20089;-54
2023/12/09 11:03:32;;;;;;;0.88;0.60;;;18.70;49.20;;;;;;8361490;28;20053;-55
2023/12/09 11:07:35;;;;;;;0.60;0.60;;;18.70;49.10;;;;;;8361925;28;20570;-54
2023/12/09 11:11:36;;;;;;;0.75;0.63;;;18.70;49.20;;;;;;8361640;28;20041;-53
2023/12/09 11:15:37;;;;;;;0.70;0.70;;;18.70;49.10;;;;;;8361571;28;20060;-54
2023/12/09 11:19:37;;;;;;;0.90;0.70;;;18.70;49.10;;;;;;8361573;28;20048;-54
2023/12/09 11:23:38;;;;;;;0.90;0.90;;;18.70;49.10;;;;;;8361400;28;20049;-54
2023/12/09 11:27:39;;;;;;;0.60;0.60;;;18.70;49.10;;;;;;8360917;28;20139;-53
2023/12/09 11:31:48;;;;;;;0.63;0.63;;;18.70;49.10;;;;;;8361275;28;20067;-53
2023/12/09 11:35:49;;;;;;;0.95;0.70;;;18.70;49.10;;;;;;8360670;28;20080;-52
2023/12/09 11:39:50;;;;;;;;;;;18.70;49.20;;;;;;8359361;28;20049;-54
2023/12/09 11:43:52;;;;;;;1.40;0.90;;;18.70;49.20;;;;;;8360637;28;20007;-55
2023/12/09 11:47:54;;;;;;;0.82;0.65;;;18.70;49.20;;;;;;8359110;28;20057;-54
2023/12/09 11:51:56;;;;;;;;;;;18.70;49.10;;;;;;8359603;28;20049;-54
2023/12/09 11:55:58;;;;;;;0.80;0.80;;;18.70;49.10;;;;;;8360270;28;19912;-54
2023/12/09 11:59:59;;;;;;;0.70;0.70;;;18.70;49.20;;;;;;8360315;28;20041;-54
2023/12/09 12:03:59;;;;;;;0.73;0.73;;;18.80;49.20;;;;;;8358931;28;20056;-53
2023/12/09 12:08:00;;;;;;;0.70;0.70;;;18.80;49.20;;;;;;8359940;28;20407;-54
2023/12/09 12:12:01;;;;;;;0.70;0.60;;;18.80;49.20;;;;;;8360014;28;20049;-55
2023/12/09 12:16:03;;;;;;;0.77;0.60;;;18.80;49.20;;;;;;8359619;28;20053;-54
2023/12/09 12:20:05;;;;;;;0.60;0.60;;;18.70;49.20;;;;;;8359591;28;20044;-55
2023/12/09 12:24:08;;;;;;;1.05;0.93;;;18.70;49.20;;;;;;8359874;28;20052;-55
2023/12/09 12:28:09;;;;;;;0.70;0.65;;;18.80;49.20;;;;;;8359367;28;20151;-54
2023/12/09 12:32:15;;;;;;;0.88;0.77;;;18.80;49.20;;;;;;8359341;28;20049;-54
2023/12/09 12:36:17;;;;;;;0.60;0.60;;;18.80;49.20;;;;;;8359051;28;20056;-54
2023/12/09 12:40:18;;;;;;;0.60;0.60;;;18.80;49.20;;;;;;8359101;28;20139;-53
2023/12/09 12:44:20;;;;;;;;;;;18.70;49.20;;;;;;8359427;28;20152;-53
2023/12/09 12:48:21;;;;;;;0.60;0.60;;;18.70;49.20;;;;;;8358966;28;20410;-52
2023/12/09 12:52:21;;;;;;;1.30;0.77;;;18.80;49.30;;;;;;8359089;28;20403;-53
2023/12/09 12:56:23;;;;;;;0.70;0.70;;;18.80;49.20;;;;;;8358843;28;20057;-53
2023/12/09 13:00:24;;;;;;;0.60;0.60;;;18.70;49.20;;;;;;8359056;28;20051;-52
2023/12/09 13:04:32;;;;;;;0.60;0.60;;;18.80;49.20;;;;;;8357210;28;20053;-52
2023/12/09 13:08:33;;;;;;;0.60;0.60;;;18.80;49.20;;;;;;8358835;28;21082;-53
2023/12/09 13:12:33;;;;;;;1.08;0.98;;;18.80;49.30;;;;;;8359514;28;20746;-52
2023/12/09 13:16:37;;;;;;;0.80;0.70;;;18.80;49.20;;;;;;8365304;28;20557;-52
2023/12/09 13:20:38;;;;;;;0.47;0.47;;;18.80;49.20;;;;;;8365238;28;20110;-52
2023/12/09 13:24:39;;;;;;;;;;;18.70;49.20;;;;;;8365011;28;20118;-53
2023/12/09 13:28:40;;;;;;;0.83;0.63;;;18.80;49.20;;;;;;8363550;28;19924;-53
2023/12/09 13:32:41;;;;;;;0.75;0.75;;;18.70;49.30;;;;;;8364558;28;20052;-51
2023/12/09 13:36:44;;;;;;;0.70;0.70;;;18.70;49.30;;;;;;8372968;28;20056;-51
2023/12/09 13:40:46;;;;;;;0.50;0.50;;;18.70;49.30;;;;;;8365110;28;20371;-52
2023/12/09 13:44:46;;;;;;;0.88;0.60;;;18.70;49.30;;;;;;8364994;28;20340;-52
2023/12/09 13:48:47;;;;;;;0.70;0.70;;;18.70;49.30;;;;;;8364900;28;20674;-52
2023/12/09 13:52:48;;;;;;;0.55;0.55;;;18.70;49.30;;;;;;8364892;28;20045;-52
2023/12/09 13:56:48;;;;;;;0.73;0.73;;;18.70;49.30;;;;;;8364737;28;20025;-51
2023/12/09 14:00:49;;;;;;;1.35;0.73;;;18.70;49.30;;;;;;8364729;28;20069;-52
2023/12/09 14:04:51;;;;;;;0.50;0.50;;;18.70;49.40;;;;;;8365314;28;20040;-53
2023/12/09 14:08:52;;;;;;;0.57;0.57;;;18.70;49.40;;;;;;8364163;28;20036;-52
2023/12/09 14:12:52;;;;;;;0.60;0.60;;;18.70;49.50;;;;;;8364312;28;20040;-53
2023/12/09 14:16:53;;;;;;;0.57;0.57;;;18.70;49.50;;;;;;8364267;28;20029;-53
2023/12/09 14:20:54;;;;;;;0.47;0.47;;;18.60;49.50;;;;;;8363995;28;20074;-52
2023/12/09 14:24:54;;;;;;;1.40;0.80;;;18.60;49.50;;;;;;8362697;28;20108;-53
2023/12/09 14:28:56;;;;;;;0.60;0.60;;;18.60;49.50;;;;;;8363781;28;20029;-53
2023/12/09 14:32:57;;;;;;;0.77;0.60;;;18.60;49.50;;;;;;8363278;28;20040;-53
2023/12/09 14:36:57;;;;;;;1.25;1.00;;;18.60;49.50;;;;;;8363430;28;20135;-53
2023/12/09 14:40:58;;;;;;;3.70;1.67;;;18.50;49.60;;;;;;8363249;28;20033;-52
2023/12/09 14:44:59;;;;;;;5.70;2.67;;;18.40;49.30;;;;;;8363562;28;20033;-54
2023/12/09 14:49:00;;;;;;;6.00;3.03;;;18.40;49.00;;;;;;8363052;28;20037;-54
2023/12/09 14:53:01;;;;;;;9.55;3.15;;;18.30;48.70;;;;;;8363038;28;20048;-54
2023/12/09 14:57:03;;;;;;;8.88;3.45;;;18.30;48.50;;;;;;8362585;28;20037;-55
2023/12/09 15:01:04;;;;;;;5.97;3.47;;;18.30;48.40;;;;;;8361608;28;20139;-49
2023/12/09 15:05:05;;;;;;;7.20;3.63;;;18.20;48.10;;;;;;8360346;28;20119;-52
2023/12/09 15:09:08;;;;;;;;;;;18.20;48.10;;;;;;8364915;28;20159;-56
2023/12/09 15:13:09;;;;;;;6.80;3.72;;;18.30;48.80;;;;;;8364414;28;19909;-56
2023/12/09 15:17:11;;;;;;;7.40;3.45;;;18.50;48.10;;;;;;8364245;28;20041;-52
2023/12/09 15:21:11;;;;;;;6.70;3.20;;;18.70;47.50;;;;;;8363815;28;20048;-54
2023/12/09 15:25:12;;;;;;;4.47;2.70;;;18.80;47.60;;;;;;8363698;28;20040;-53
2023/12/09 15:29:13;;;;;;;5.13;2.28;;;18.80;47.60;;;;;;8363929;28;20040;-52
2023/12/09 15:33:18;;;;;;;4.20;2.03;;;18.90;47.70;;;;;;8362443;28;20033;-52
2023/12/09 15:37:20;;;;;;;7.25;2.47;;;18.90;47.70;;;;;;8363692;28;20037;-53
2023/12/09 15:41:20;;;;;;;3.40;2.58;;;18.90;47.70;;;;;;8363417;28;20044;-52
2023/12/09 15:45:21;;;;;;;4.35;2.47;;;18.90;48.40;;;;;;8363055;28;20116;-53
2023/12/09 15:49:22;;;;;;;4.47;2.33;;;19.00;47.90;;;;;;8362831;28;20029;-52
2023/12/09 15:53:22;;;;;;;4.57;2.20;;;19.00;47.80;;;;;;8362996;28;20041;-52
2023/12/09 15:57:23;;;;;;;5.97;2.47;;;19.00;47.90;;;;;;8363149;28;20060;-51
2023/12/09 16:01:24;;;;;;;2.97;2.22;;;19.00;48.00;;;;;;8362691;28;20380;-52
2023/12/09 16:05:26;;;;;;;2.80;2.00;;;19.00;48.00;;;;;;8362580;28;20037;-54
2023/12/09 16:09:26;;;;;;;3.95;2.20;;;19.00;48.00;;;;;;8362605;28;20025;-52
2023/12/09 16:13:27;;;;;;;4.00;2.20;;;19.10;48.10;;;;;;8362691;28;20075;-52
2023/12/09 16:17:28;;;;;;;3.28;2.00;;;19.10;48.10;;;;;;8362554;28;20029;-55
2023/12/09 16:21:29;;;;;;;5.07;2.10;;;19.10;48.10;;;;;;8362227;28;20032;-53
2023/12/09 16:25:30;;;;;;;3.83;2.10;;;19.10;48.10;;;;;;8362507;28;20029;-53
2023/12/09 16:29:31;;;;;;;2.85;1.90;;;19.10;48.70;;;;;;8361620;28;20102;-53
2023/12/09 16:33:31;;;;;;;3.38;1.90;;;19.10;48.60;;;;;;8361982;28;20044;-54
2023/12/09 16:37:32;;;;;;;4.05;1.90;;;19.10;48.40;;;;;;8361716;28;20498;-54
2023/12/09 16:41:33;;;;;;;4.97;2.15;;;19.00;48.30;;;;;;8361524;28;20439;-52
2023/12/09 16:45:34;;;;;;;3.55;1.92;;;19.00;48.40;;;;;;8361593;28;20394;-50
2023/12/09 16:49:35;;;;;;;5.57;2.20;;;19.10;48.30;;;;;;8359235;28;20030;-54
2023/12/09 16:53:35;;;;;;;3.05;2.10;;;19.00;48.50;;;;;;8359632;28;20037;-53
2023/12/09 16:57:36;;;;;;;9.05;2.28;;;19.10;48.60;;;;;;8362943;28;20040;-55
2023/12/09 17:01:40;;;;;;;5.88;1.85;;;19.20;48.60;;;;;;8362792;28;20652;-55
2023/12/09 17:05:41;;;;;;;6.40;2.63;;;19.20;48.80;;;;;;8362212;28;20394;-56
2023/12/09 17:09:42;;;;;;;6.32;1.98;;;19.20;49.00;;;;;;8362198;28;20029;-55
2023/12/09 17:13:43;;;;;;;4.97;1.70;;;19.20;48.60;;;;;;8362401;28;20057;-55
2023/12/09 17:17:45;;;;;;;3.80;1.77;;;19.20;48.60;;;;;;8360848;28;20043;-55
2023/12/09 17:21:46;;;;;;;7.82;2.53;;;19.20;48.70;;;;;;8361971;28;20045;-53
2023/12/09 17:25:47;;;;;;;3.55;1.67;;;19.20;48.60;;;;;;8361754;28;20090;-54
2023/12/09 17:29:48;;;;;;;7.00;2.08;;;19.30;48.60;;;;;;8361890;28;20418;-55
2023/12/09 17:33:48;;;;;;;3.35;2.03;;;19.30;48.60;;;;;;8361980;28;20087;-52
2023/12/09 17:37:49;;;;;;;2.33;1.48;;;19.30;48.60;;;;;;8361170;28;20518;-51
2023/12/09 17:41:50;;;;;;;4.32;2.00;;;19.30;48.80;;;;;;8360258;28;20040;-55
2023/12/09 17:45:51;;;;;;;4.03;1.80;;;19.30;48.90;;;;;;8360168;28;20642;-53
2023/12/09 17:49:51;;;;;;;4.60;1.50;;;19.30;49.30;;;;;;8361223;28;20059;-57
2023/12/09 17:53:52;;;;;;;3.10;1.48;;;19.30;48.80;;;;;;8362141;28;20021;-53
2023/12/09 17:57:53;;;;;;;3.03;1.60;;;19.30;48.80;;;;;;8361044;28;20032;-52
2023/12/09 18:01:53;;;;;;;4.22;1.55;;;19.30;49.00;;;;;;8359482;28;20033;-53
2023/12/09 18:05:54;;;;;;;12.23;1.88;;;19.30;48.80;;;;;;8360593;28;20033;-52
2023/12/09 18:09:56;;;;;;;3.85;1.30;;;19.30;49.00;;;;;;8360952;28;20029;-54
2023/12/09 18:13:57;;;;;;;5.07;1.90;;;19.30;48.80;;;;;;8360308;28;20491;-57
2023/12/09 18:18:00;;;;;;;12.43;2.15;;;19.30;49.40;;;;;;8360404;28;20052;-57
2023/12/09 18:22:01;;;;;;;1.92;1.70;;;19.30;49.10;;;;;;8360089;28;20500;-56
2023/12/09 18:26:09;;;;;;;6.18;1.50;;;19.30;49.10;;;;;;8359957;28;20033;-55
2023/12/09 18:30:10;;;;;;;2.63;1.42;;;19.30;49.00;;;;;;8358577;28;20025;-54
2023/12/09 18:34:11;;;;;;;5.85;1.50;;;19.30;49.00;;;;;;8360052;28;20101;-55
2023/12/09 18:38:12;;;;;;;5.03;1.65;;;19.30;49.00;;;;;;8358985;28;20061;-54
2023/12/09 18:42:12;;;;;;;;;;;19.30;49.20;;;;;;8360001;28;21203;-54
2023/12/09 18:46:19;;;;;;;1.77;1.40;;;19.30;49.20;;;;;;8359563;28;19926;-50
2023/12/09 18:50:20;;;;;;;1.80;1.20;;;19.30;49.10;;;;;;8358945;28;20041;-53
2023/12/09 18:54:21;;;;;;;2.22;1.40;;;19.30;49.20;;;;;;8359322;28;20528;-50
2023/12/09 18:58:26;;;;;;;1.98;1.45;;;19.30;49.20;;;;;;8359202;28;20108;-49
2023/12/09 19:02:27;;;;;;;2.13;1.58;;;19.30;49.10;;;;;;8358956;28;20419;-50
2023/12/09 19:06:28;;;;;;;1.77;1.33;;;19.30;49.10;;;;;;8359120;28;20473;-53
2023/12/09 19:10:29;;;;;;;1.60;1.30;;;19.30;49.30;;;;;;8357493;28;20029;-53
2023/12/09 19:14:29;;;;;;;2.30;1.52;;;19.30;49.20;;;;;;8357841;28;20108;-51
2023/12/09 19:18:30;;;;;;;3.10;1.35;;;19.30;49.20;;;;;;8357420;28;20021;-54
2023/12/09 19:22:34;;;;;;;4.88;1.50;;;19.30;49.10;;;;;;8353647;28;20037;-54
2023/12/09 19:26:35;;;;;;;1.52;1.15;;;19.30;49.40;;;;;;8356653;28;20033;-57
2023/12/09 19:30:36;;;;;;;10.65;1.50;;;19.30;49.30;;;;;;8357656;28;20738;-57
2023/12/09 19:34:37;;;;;;;;;;;19.30;49.60;;;;;;8358116;28;20037;-52
2023/12/09 19:38:38;;;;;;;2.40;1.40;;;19.40;49.80;;;;;;8357686;28;19928;-54
2023/12/09 19:42:38;;;;;;;2.28;1.30;;;19.40;49.70;;;;;;8357681;28;20099;-54
2023/12/09 19:46:39;;;;;;;4.50;1.98;;;19.50;49.80;;;;;;8357181;28;20033;-54
2023/12/09 19:50:41;;;;;;;2.38;1.50;;;19.50;50.00;;;;;;8357235;28;20425;-54
2023/12/09 19:54:42;;;;;;;3.88;1.45;;;19.50;50.00;;;;;;8357310;28;20036;-55
2023/12/09 19:58:43;;;;;;;2.17;1.20;;;19.50;50.00;;;;;;8355446;28;20087;-53
2023/12/09 20:02:46;;;;;;;5.13;1.45;;;19.50;50.00;;;;;;8357100;28;20044;-54
2023/12/09 20:06:47;;;;;;;5.22;1.30;;;19.50;50.10;;;;;;8355397;28;20064;-52
2023/12/09 20:10:48;;;;;;;4.00;1.27;;;19.50;50.20;;;;;;8356921;28;20025;-52
2023/12/09 20:14:48;;;;;;;9.88;1.83;;;19.60;50.20;;;;;;8354117;28;20052;-53
2023/12/09 20:18:49;;;;;;;3.90;1.15;;;19.60;49.90;;;;;;8355409;28;20048;-54
2023/12/09 20:22:50;;;;;;;8.80;1.73;;;19.50;50.00;;;;;;8355184;28;20032;-53
2023/12/09 20:26:51;;;;;;;16.92;1.45;;;19.50;50.20;;;;;;8356493;28;20045;-53
2023/12/09 20:30:53;;;;;;;8.52;1.60;;;19.60;50.10;;;;;;8356048;28;20414;-49
2023/12/09 20:34:55;;;;;;;9.48;1.90;;;19.60;50.20;;;;;;8354949;28;20056;-54
2023/12/09 20:38:56;;;;;;;10.13;2.40;;;19.60;52.20;;;;;;8350778;28;20458;-48
2023/12/09 20:42:57;;;;;;;15.32;2.60;;;19.60;51.60;;;;;;8354811;28;20175;-52
2023/12/09 20:46:58;;;;;;;5.18;1.70;;;19.60;51.10;;;;;;8352874;28;20102;-50
2023/12/09 20:50:59;;;;;;;8.02;2.15;;;19.60;50.90;;;;;;8354641;28;20486;-49
2023/12/09 20:54:59;;;;;;;6.75;2.20;;;19.70;51.10;;;;;;8355355;28;20406;-48
2023/12/09 20:59:04;;;;;;;7.55;2.13;;;19.60;51.00;;;;;;8355969;28;20086;-47
2023/12/09 21:03:04;;;;;;;6.63;1.85;;;19.70;51.00;;;;;;8354310;28;20072;-47
2023/12/09 21:07:05;;;;;;;4.00;1.83;;;19.60;50.90;;;;;;8355215;28;20066;-47
2023/12/09 21:11:06;;;;;;;8.27;2.05;;;19.70;50.90;;;;;;8355287;28;20043;-47
2023/12/09 21:15:07;;;;;;;8.13;1.73;;;19.70;50.90;;;;;;8355594;28;20029;-53
2023/12/09 21:19:07;;;;;;;4.63;1.60;;;19.60;50.70;;;;;;8354590;28;20037;-55
2023/12/09 21:23:08;;;;;;;3.05;1.40;;;19.60;51.00;;;;;;8354022;28;20037;-53
2023/12/09 21:27:09;;;;;;;8.65;1.90;;;19.70;50.80;;;;;;8355180;28;20502;-50